createdAt,value
2018-08-18T00:02:14.424Z,101168.59
2018-08-18T00:04:42.421Z,101162.66
2018-08-18T00:07:10.429Z,101166.06
2018-08-18T00:09:38.431Z,101169.08
2018-08-18T00:12:06.656Z,101170.05
2018-08-18T00:14:34.718Z,101161.33
2018-08-18T00:17:02.717Z,101171.98
2018-08-18T00:19:30.713Z,101165.52
2018-08-18T00:21:58.704Z,101165.52
2018-08-18T00:24:26.793Z,101174.31
2018-08-18T00:26:54.802Z,101167.62
2018-08-18T00:29:22.796Z,101172.95
2018-08-18T00:31:50.858Z,101173.45
2018-08-18T00:34:18.911Z,101169.06
2018-08-18T00:36:46.849Z,101175.27
2018-08-18T00:39:14.840Z,101176.94
2018-08-18T00:41:42.847Z,101178.02
2018-08-18T00:44:11.505Z,101160.94
2018-08-18T00:46:39.554Z,101174.25
2018-08-18T00:49:07.678Z,101175.67
2018-08-18T00:51:36.939Z,101177.09
2018-08-18T00:54:06.537Z,101174.77
2018-08-18T00:56:36.990Z,101177.92
2018-08-18T00:59:04.994Z,101182.41
2018-08-18T01:01:32.963Z,101186.01
2018-08-18T01:04:02.020Z,101188.22
2018-08-18T01:06:32.029Z,101188.98
2018-08-18T01:09:00.843Z,101189.59
2018-08-18T01:11:29.257Z,101190.44
2018-08-18T01:13:58.260Z,101189.80
2018-08-18T01:16:26.225Z,101193.78
2018-08-18T01:18:54.956Z,101196.84
2018-08-18T01:21:24.268Z,101192.69
2018-08-18T01:23:52.229Z,101193.86
2018-08-18T01:26:20.281Z,101195.80
2018-08-18T01:28:48.941Z,101201.33
2018-08-18T01:31:21.165Z,101202.39
2018-08-18T01:33:49.156Z,101194.90
2018-08-18T01:36:17.157Z,101208.34
2018-08-18T01:38:45.168Z,101202.43
2018-08-18T01:41:19.712Z,101205.58
2018-08-18T01:43:49.457Z,101204.14
2018-08-18T01:46:18.533Z,101201.48
2018-08-18T01:48:48.549Z,101201.19
2018-08-18T01:51:18.661Z,101197.97
2018-08-18T01:53:47.632Z,101203.10
2018-08-18T01:56:17.274Z,101202.25
2018-08-18T01:58:45.274Z,101202.39
2018-08-18T02:01:13.303Z,101197.35
2018-08-18T02:03:41.300Z,101194.69
2018-08-18T02:06:09.272Z,101191.50
2018-08-18T02:08:56.005Z,101198.95
2018-08-18T02:11:25.977Z,101194.59
2018-08-18T02:13:55.397Z,101201.24
2018-08-18T02:16:24.986Z,101197.97
2018-08-18T02:18:52.989Z,101190.75
2018-08-18T02:21:29.536Z,101187.34
2018-08-18T02:23:58.632Z,101188.31
2018-08-18T02:26:27.853Z,101190.97
2018-08-18T02:28:55.858Z,101191.55
2018-08-18T02:31:24.072Z,101190.00
2018-08-18T02:33:52.156Z,101191.59
2018-08-18T02:36:20.157Z,101188.45
2018-08-18T02:38:55.568Z,101187.47
2018-08-18T02:41:24.641Z,101191.59
2018-08-18T02:43:52.828Z,101185.70
2018-08-18T02:46:28.826Z,101191.38
2018-08-18T02:48:56.962Z,101196.70
2018-08-18T02:51:24.966Z,101198.42
2018-08-18T02:53:52.945Z,101197.45
2018-08-18T02:56:21.548Z,101195.90
2018-08-18T02:58:56.657Z,101193.27
2018-08-18T03:01:28.824Z,101199.23
2018-08-18T03:03:57.252Z,101203.58
2018-08-18T03:06:25.306Z,101201.86
2018-08-18T03:08:53.294Z,101206.20
2018-08-18T03:11:21.320Z,101210.24
2018-08-18T03:13:49.344Z,101209.80
2018-08-18T03:16:17.373Z,101206.23
2018-08-18T03:18:47.222Z,101209.83
2018-08-18T03:21:15.504Z,101210.16
2018-08-18T03:23:55.144Z,101209.10
2018-08-18T03:26:31.514Z,101207.92
2018-08-18T03:28:59.572Z,101209.67
2018-08-18T03:31:27.538Z,101207.98
2018-08-18T03:33:55.536Z,101205.14
2018-08-18T03:36:31.481Z,101203.78
2018-08-18T03:38:59.791Z,101209.80
2018-08-18T03:41:28.845Z,101213.89
2018-08-18T03:43:57.329Z,101215.63
2018-08-18T03:46:25.321Z,101220.53
2018-08-18T03:48:53.629Z,101217.39
2018-08-18T03:51:28.250Z,101215.89
2018-08-18T03:53:56.425Z,101216.81
2018-08-18T03:56:24.460Z,101213.38
2018-08-18T03:58:54.408Z,101211.66
2018-08-18T04:01:37.741Z,101211.30
2018-08-18T04:04:06.980Z,101211.20
2018-08-18T04:06:36.080Z,101215.47
2018-08-18T04:09:05.952Z,101215.55
2018-08-18T04:11:33.897Z,101216.33
2018-08-18T04:14:01.885Z,101221.83
2018-08-18T04:16:29.922Z,101223.34
2018-08-18T04:19:01.416Z,101220.98
2018-08-18T04:21:31.421Z,101226.23
2018-08-18T04:23:59.414Z,101225.28
2018-08-18T04:26:27.704Z,101226.30
2018-08-18T04:28:55.994Z,101228.00
2018-08-18T04:31:28.388Z,101225.51
2018-08-18T04:33:56.409Z,101226.86
2018-08-18T04:36:24.423Z,101226.65
2018-08-18T04:38:52.413Z,101229.84
2018-08-18T04:41:21.180Z,101225.27
2018-08-18T04:43:49.281Z,101225.61
2018-08-18T04:46:17.235Z,101225.31
2018-08-18T04:48:45.228Z,101224.46
2018-08-18T04:51:13.345Z,101229.51
2018-08-18T04:53:41.349Z,101228.51
2018-08-18T04:56:09.353Z,101222.91
2018-08-18T04:58:37.336Z,101225.31
2018-08-18T05:01:05.365Z,101229.74
2018-08-18T05:03:33.416Z,101237.17
2018-08-18T05:06:01.367Z,101239.95
2018-08-18T05:08:29.364Z,101230.08
2018-08-18T05:10:57.424Z,101234.17
2018-08-18T05:13:25.416Z,101236.83
2018-08-18T05:15:53.427Z,101233.36
2018-08-18T05:18:21.485Z,101235.37
2018-08-18T05:20:49.483Z,101239.17
2018-08-18T05:23:23.490Z,101237.98
2018-08-18T05:25:52.353Z,101234.83
2018-08-18T05:28:20.598Z,101241.97
2018-08-18T05:30:51.500Z,101246.26
2018-08-18T05:33:19.509Z,101246.75
2018-08-18T05:35:47.556Z,101247.95
2018-08-18T05:38:15.624Z,101246.34
2018-08-18T05:40:43.677Z,101252.84
2018-08-18T05:43:11.713Z,101261.30
2018-08-18T05:45:39.727Z,101260.55
2018-08-18T05:48:07.748Z,101260.02
2018-08-18T05:50:35.808Z,101261.67
2018-08-18T05:53:16.120Z,101263.33
2018-08-18T05:55:44.130Z,101263.91
2018-08-18T05:58:12.468Z,101273.25
2018-08-18T06:00:40.773Z,101281.73
2018-08-18T06:03:09.304Z,101283.49
2018-08-18T06:05:37.478Z,101275.86
2018-08-18T06:08:05.982Z,101278.98
2018-08-18T06:10:33.993Z,101274.61
2018-08-18T06:13:07.525Z,101279.14
2018-08-18T06:15:35.524Z,101289.82
2018-08-18T06:18:03.605Z,101294.66
2018-08-18T06:20:31.590Z,101294.37
2018-08-18T06:22:59.576Z,101296.52
2018-08-18T06:25:27.697Z,101297.73
2018-08-18T06:27:55.718Z,101299.39
2018-08-18T06:30:23.743Z,101301.98
2018-08-18T06:32:51.791Z,101294.42
2018-08-18T06:35:20.939Z,101298.23
2018-08-18T06:37:54.032Z,101298.69
2018-08-18T06:40:22.129Z,101303.27
2018-08-18T06:42:50.141Z,101304.23
2018-08-18T06:45:19.436Z,101304.66
2018-08-18T06:47:47.439Z,101306.59
2018-08-18T06:50:16.524Z,101313.25
2018-08-18T06:52:45.274Z,101308.17
2018-08-18T06:55:15.180Z,101310.34
2018-08-18T06:57:50.247Z,101315.08
2018-08-18T07:00:20.296Z,101310.98
2018-08-18T07:02:48.296Z,101312.58
2018-08-18T07:05:17.319Z,101312.21
2018-08-18T07:07:46.008Z,101305.95
2018-08-18T07:10:28.959Z,101318.63
2018-08-18T07:13:01.808Z,101317.91
2018-08-18T07:15:31.469Z,101314.17
2018-08-18T07:17:59.472Z,101317.58
2018-08-18T07:20:27.448Z,101315.39
2018-08-18T07:22:55.763Z,101313.80
2018-08-18T07:25:23.908Z,101312.02
2018-08-18T07:27:58.193Z,101311.94
2018-08-18T07:30:26.696Z,101314.98
2018-08-18T07:32:54.669Z,101313.15
2018-08-18T07:35:22.741Z,101319.23
2018-08-18T07:37:50.730Z,101325.52
2018-08-18T07:40:21.844Z,101319.32
2018-08-18T07:42:54.017Z,101315.21
2018-08-18T07:45:22.024Z,101316.62
2018-08-18T07:47:50.116Z,101312.02
2018-08-18T07:50:18.140Z,101317.68
2018-08-18T07:52:46.105Z,101320.77
2018-08-18T07:55:14.152Z,101317.10
2018-08-18T07:57:46.323Z,101305.28
2018-08-18T08:00:14.334Z,101308.92
2018-08-18T08:02:42.365Z,101314.17
2018-08-18T08:05:10.425Z,101316.84
2018-08-18T08:07:39.282Z,101308.39
2018-08-18T08:10:07.333Z,101308.23
2018-08-18T08:12:35.454Z,101312.90
2018-08-18T08:15:03.353Z,101310.07
2018-08-18T08:17:31.333Z,101313.85
2018-08-18T08:19:59.340Z,101308.98
2018-08-18T08:22:27.409Z,101307.53
2018-08-18T08:24:56.289Z,101315.53
2018-08-18T08:27:24.286Z,101313.55
2018-08-18T08:29:52.320Z,101313.80
2018-08-18T08:32:20.312Z,101316.95
2018-08-18T08:34:48.304Z,101318.09
2018-08-18T08:37:17.062Z,101322.33
2018-08-18T08:39:46.081Z,101313.39
2018-08-18T08:42:14.076Z,101310.88
2018-08-18T08:44:43.129Z,101306.75
2018-08-18T08:47:13.753Z,101301.66
2018-08-18T08:49:41.772Z,101306.07
2018-08-18T08:52:09.772Z,101308.94
2018-08-18T08:54:38.915Z,101301.25
2018-08-18T08:57:08.303Z,101307.73
2018-08-18T08:59:37.404Z,101310.91
2018-08-18T09:02:06.148Z,101304.64
2018-08-18T09:04:34.788Z,101298.06
2018-08-18T09:07:04.447Z,101299.16
2018-08-18T09:09:32.520Z,101292.23
2018-08-18T09:12:00.555Z,101287.49
2018-08-18T09:14:28.550Z,101287.34
2018-08-18T09:16:56.585Z,101286.41
2018-08-18T09:19:24.605Z,101293.88
2018-08-18T09:21:53.705Z,101291.98
2018-08-18T09:24:23.709Z,101285.41
2018-08-18T09:26:53.677Z,101289.17
2018-08-18T09:29:22.049Z,101283.53
2018-08-18T09:31:50.172Z,101278.38
2018-08-18T09:34:18.208Z,101284.80
2018-08-18T09:39:13.220Z,101274.52
2018-08-18T09:41:41.264Z,101265.11
2018-08-18T09:44:14.675Z,101279.50
2018-08-18T09:46:43.449Z,101283.56
2018-08-18T09:49:11.473Z,101277.11
2018-08-18T09:51:39.517Z,101271.99
2018-08-18T09:54:07.512Z,101266.88
2018-08-18T09:56:35.525Z,101268.25
2018-08-18T09:59:03.520Z,101274.63
2018-08-18T10:01:31.611Z,101283.48
2018-08-18T10:03:59.617Z,101273.00
2018-08-18T10:06:27.663Z,101271.75
2018-08-18T10:08:55.820Z,101287.73
2018-08-18T10:11:23.903Z,101290.86
2018-08-18T10:13:51.918Z,101284.33
2018-08-18T10:16:19.966Z,101278.70
2018-08-18T10:18:48.448Z,101273.55
2018-08-18T10:21:16.492Z,101271.77
2018-08-18T10:23:44.597Z,101271.33
2018-08-18T10:26:12.782Z,101275.34
2018-08-18T10:28:41.181Z,101270.95
2018-08-18T10:31:09.386Z,101271.27
2018-08-18T10:33:37.440Z,101261.38
2018-08-18T10:36:05.468Z,101256.61
2018-08-18T10:38:33.493Z,101256.80
2018-08-18T10:41:03.560Z,101263.22
2018-08-18T10:43:32.059Z,101250.70
2018-08-18T10:46:00.132Z,101260.27
2018-08-18T10:48:28.137Z,101257.70
2018-08-18T10:51:38.870Z,101259.50
2018-08-18T10:54:06.815Z,101252.48
2018-08-18T10:56:34.830Z,101254.44
2018-08-18T10:59:20.272Z,101250.69
2018-08-18T11:02:00.437Z,101245.19
2018-08-18T11:04:29.539Z,101240.52
2018-08-18T11:06:57.540Z,101246.72
2018-08-18T11:09:25.545Z,101243.83
2018-08-18T11:11:53.886Z,101245.97
2018-08-18T11:14:22.016Z,101245.84
2018-08-18T11:16:50.033Z,101247.85
2018-08-18T11:19:18.078Z,101250.45
2018-08-18T11:21:46.098Z,101252.28
2018-08-18T11:24:14.105Z,101254.70
2018-08-18T11:26:42.125Z,101256.36
2018-08-18T11:29:17.222Z,101258.91
2018-08-18T11:31:46.529Z,101252.81
2018-08-18T11:34:16.670Z,101252.43
2018-08-18T11:36:59.233Z,101249.33
2018-08-18T11:39:28.486Z,101242.30
2018-08-18T11:41:57.243Z,101252.04
2018-08-18T11:44:25.245Z,101244.36
2018-08-18T11:46:53.337Z,101248.29
2018-08-18T11:49:21.568Z,101238.82
2018-08-18T11:51:49.733Z,101242.17
2018-08-18T11:54:17.812Z,101225.34
2018-08-18T11:56:51.152Z,101233.94
2018-08-18T11:59:19.161Z,101236.70
2018-08-18T12:01:49.242Z,101229.69
2018-08-18T12:04:17.661Z,101221.44
2018-08-18T12:06:51.024Z,101213.72
2018-08-18T12:09:19.045Z,101222.00
2018-08-18T12:11:47.968Z,101227.45
2018-08-18T12:14:16.276Z,101227.23
2018-08-18T12:16:44.267Z,101224.73
2018-08-18T12:19:12.293Z,101221.55
2018-08-18T12:21:44.022Z,101221.00
2018-08-18T12:24:17.692Z,101224.59
2018-08-18T12:26:57.096Z,101217.79
2018-08-18T12:29:25.132Z,101212.80
2018-08-18T12:31:53.119Z,101209.00
2018-08-18T12:34:21.122Z,101208.69
2018-08-18T12:36:49.193Z,101205.12
2018-08-18T12:39:17.108Z,101205.73
2018-08-18T12:41:45.116Z,101205.47
2018-08-18T12:44:14.250Z,101207.84
2018-08-18T12:46:47.741Z,101204.20
2018-08-18T12:49:15.773Z,101196.28
2018-08-18T12:51:44.700Z,101201.32
2018-08-18T12:54:12.708Z,101200.06
2018-08-18T12:56:40.712Z,101199.59
2018-08-18T12:59:08.732Z,101198.88
2018-08-18T13:01:46.328Z,101190.28
2018-08-18T13:04:15.686Z,101188.36
2018-08-18T13:06:51.646Z,101191.09
2018-08-18T13:09:21.000Z,101183.13
2018-08-18T13:11:50.201Z,101189.78
2018-08-18T13:14:20.554Z,101186.05
2018-08-18T13:16:48.521Z,101186.95
2018-08-18T13:19:18.449Z,101175.05
2018-08-18T13:21:46.447Z,101167.88
2018-08-18T13:24:14.539Z,101172.20
2018-08-18T13:26:42.457Z,101159.86
2018-08-18T13:29:10.463Z,101152.23
2018-08-18T13:31:41.529Z,101153.56
2018-08-18T13:34:11.356Z,101151.45
2018-08-18T13:36:40.533Z,101142.69
2018-08-18T13:39:12.084Z,101149.72
2018-08-18T13:41:40.260Z,101150.28
2018-08-18T13:44:08.289Z,101147.27
2018-08-18T13:46:50.169Z,101143.11
2018-08-18T13:49:23.175Z,101146.72
2018-08-18T13:51:51.281Z,101149.64
2018-08-18T13:54:19.458Z,101149.55
2018-08-18T13:56:47.484Z,101151.35
2018-08-18T13:59:24.432Z,101149.59
2018-08-18T14:01:52.489Z,101149.37
2018-08-18T14:04:26.046Z,101148.75
2018-08-18T14:06:55.208Z,101149.28
2018-08-18T14:09:23.212Z,101143.66
2018-08-18T14:11:55.288Z,101147.12
2018-08-18T14:14:23.360Z,101144.58
2018-08-18T14:16:51.376Z,101139.52
2018-08-18T14:19:21.209Z,101141.34
2018-08-18T14:21:52.973Z,101143.23
2018-08-18T14:24:25.150Z,101138.79
2018-08-18T14:26:58.596Z,101138.39
2018-08-18T14:29:26.678Z,101139.96
2018-08-18T14:31:54.759Z,101139.96
2018-08-18T14:34:22.889Z,101142.16
2018-08-18T14:36:51.396Z,101139.31
2018-08-18T14:39:31.588Z,101138.27
2018-08-18T14:41:59.764Z,101137.98
2018-08-18T14:44:27.911Z,101134.73
2018-08-18T14:46:56.639Z,101136.80
2018-08-18T14:49:24.665Z,101137.16
2018-08-18T14:51:52.728Z,101134.33
2018-08-18T14:54:24.920Z,101136.75
2018-08-18T14:56:52.921Z,101137.45
2018-08-18T14:59:25.466Z,101138.92
2018-08-18T15:01:53.525Z,101142.77
2018-08-18T15:04:21.584Z,101138.14
2018-08-18T15:06:49.573Z,101139.94
2018-08-18T15:09:30.989Z,101139.08
2018-08-18T15:12:00.145Z,101131.77
2018-08-18T15:14:28.261Z,101131.05
2018-08-18T15:16:56.508Z,101131.27
2018-08-18T15:19:24.573Z,101135.36
2018-08-18T15:21:54.043Z,101138.05
2018-08-18T15:24:22.343Z,101133.42
2018-08-18T15:26:51.752Z,101132.70
2018-08-18T15:29:19.761Z,101131.25
2018-08-18T15:31:48.411Z,101127.50
2018-08-18T15:34:16.517Z,101139.56
2018-08-18T15:36:44.550Z,101129.32
2018-08-18T15:39:12.698Z,101133.94
2018-08-18T15:41:40.622Z,101129.07
2018-08-18T15:44:10.104Z,101133.55
2018-08-18T15:46:38.129Z,101129.97
2018-08-18T15:49:06.153Z,101130.66
2018-08-18T15:51:34.164Z,101131.42
2018-08-18T15:54:03.317Z,101136.17
2018-08-18T15:56:32.613Z,101137.38
2018-08-18T15:59:01.300Z,101131.96
2018-08-18T16:01:30.690Z,101135.94
2018-08-18T16:04:00.541Z,101127.88
2018-08-18T16:06:28.577Z,101124.58
2018-08-18T16:08:56.743Z,101126.93
2018-08-18T16:11:24.889Z,101119.80
2018-08-18T16:13:53.032Z,101121.25
2018-08-18T16:16:20.940Z,101123.27
2018-08-18T16:18:49.286Z,101113.41
2018-08-18T16:21:22.245Z,101117.63
2018-08-18T16:23:50.400Z,101121.98
2018-08-18T16:26:18.345Z,101117.03
2018-08-18T16:28:46.413Z,101117.79
2018-08-18T16:31:14.556Z,101123.34
2018-08-18T16:33:42.899Z,101128.34
2018-08-18T16:36:10.894Z,101116.66
2018-08-18T16:38:38.901Z,101124.16
2018-08-18T16:41:06.916Z,101129.23
2018-08-18T16:43:36.262Z,101127.81
2018-08-18T16:46:22.094Z,101125.23
2018-08-18T16:48:50.799Z,101125.94
2018-08-18T16:51:18.854Z,101121.55
2018-08-18T16:53:47.213Z,101124.59
2018-08-18T16:56:26.468Z,101118.72
2018-08-18T16:58:56.592Z,101118.41
2018-08-18T17:01:24.865Z,101124.16
2018-08-18T17:03:53.044Z,101123.23
2018-08-18T17:06:21.032Z,101126.77
2018-08-18T17:08:49.040Z,101130.84
2018-08-18T17:11:17.058Z,101128.47
2018-08-18T17:13:45.063Z,101134.66
2018-08-18T17:16:13.073Z,101130.83
2018-08-18T17:18:41.100Z,101129.55
2018-08-18T17:21:09.237Z,101137.27
2018-08-18T17:23:38.409Z,101137.25
2018-08-18T17:26:06.559Z,101139.17
2018-08-18T17:28:34.997Z,101140.25
2018-08-18T17:31:04.189Z,101141.08
2018-08-18T17:33:32.684Z,101140.52
2018-08-18T17:36:00.720Z,101143.18
2018-08-18T17:38:28.773Z,101148.05
2018-08-18T17:40:56.799Z,101147.44
2018-08-18T17:43:24.816Z,101152.03
2018-08-18T17:45:53.864Z,101147.65
2018-08-18T17:48:22.877Z,101150.02
2018-08-18T17:50:51.121Z,101149.55
2018-08-18T17:53:19.224Z,101154.80
2018-08-18T17:55:55.583Z,101158.45
2018-08-18T17:58:24.089Z,101160.47
2018-08-18T18:00:52.080Z,101164.44
2018-08-18T18:03:20.076Z,101162.02
2018-08-18T18:05:48.081Z,101166.31
2018-08-18T18:08:16.101Z,101162.69
2018-08-18T18:10:44.102Z,101171.12
2018-08-18T18:13:17.877Z,101174.42
2018-08-18T18:15:47.268Z,101174.73
2018-08-18T18:18:17.397Z,101170.06
2018-08-18T18:20:49.500Z,101169.63
2018-08-18T18:23:18.210Z,101170.66
2018-08-18T18:25:46.218Z,101174.52
2018-08-18T18:28:14.300Z,101178.41
2018-08-18T18:30:42.288Z,101171.66
2018-08-18T18:33:10.968Z,101177.36
2018-08-18T18:35:39.041Z,101181.07
2018-08-18T18:38:07.119Z,101180.27
2018-08-18T18:40:36.725Z,101177.60
2018-08-18T18:43:04.824Z,101186.48
2018-08-18T18:45:32.836Z,101179.59
2018-08-18T18:48:00.865Z,101190.13
2018-08-18T18:50:28.921Z,101188.09
2018-08-18T18:52:56.924Z,101183.26
2018-08-18T18:55:24.944Z,101190.42
2018-08-18T18:58:05.541Z,101189.28
2018-08-18T19:00:35.003Z,101193.72
2018-08-18T19:03:03.364Z,101193.27
2018-08-18T19:05:32.100Z,101194.59
2018-08-18T19:08:10.221Z,101191.47
2018-08-18T19:10:38.242Z,101198.96
2018-08-18T19:13:06.621Z,101197.77
2018-08-18T19:15:34.620Z,101195.27
2018-08-18T19:18:02.704Z,101197.15
2018-08-18T19:20:31.181Z,101197.23
2018-08-18T19:23:21.880Z,101206.87
2018-08-18T19:25:51.122Z,101203.71
2018-08-18T19:28:20.343Z,101202.03
2018-08-18T19:30:48.355Z,101204.73
2018-08-18T19:33:17.001Z,101207.10
2018-08-18T19:35:50.029Z,101208.75
2018-08-18T19:38:19.120Z,101208.81
2018-08-18T19:40:48.335Z,101209.31
2018-08-18T19:43:20.389Z,101205.09
2018-08-18T19:45:48.644Z,101212.35
2018-08-18T19:48:19.140Z,101208.60
2018-08-18T19:50:53.252Z,101207.42
2018-08-18T19:53:22.924Z,101214.98
2018-08-18T19:55:51.588Z,101211.44
2018-08-18T19:58:19.647Z,101210.25
2018-08-18T20:00:47.735Z,101215.12
2018-08-18T20:03:16.862Z,101211.73
2018-08-18T20:05:44.867Z,101209.50
2018-08-18T20:08:16.084Z,101209.84
2018-08-18T20:10:49.661Z,101212.34
2018-08-18T20:13:18.555Z,101208.55
2018-08-18T20:15:48.917Z,101210.37
2018-08-18T20:18:17.154Z,101208.34
2018-08-18T20:20:45.196Z,101211.99
2018-08-18T20:23:15.232Z,101210.91
2018-08-18T20:25:43.281Z,101212.36
2018-08-18T20:28:11.558Z,101217.38
2018-08-18T20:30:39.584Z,101217.98
2018-08-18T20:33:07.597Z,101220.31
2018-08-18T20:35:35.736Z,101223.02
2018-08-18T20:38:03.985Z,101226.35
2018-08-18T20:40:32.100Z,101230.20
2018-08-18T20:43:00.210Z,101230.42
2018-08-18T20:45:36.654Z,101228.70
2018-08-18T20:48:05.741Z,101229.98
2018-08-18T20:50:33.808Z,101228.42
2018-08-18T20:53:17.087Z,101227.41
2018-08-18T20:55:56.966Z,101235.62
2018-08-18T20:58:25.207Z,101238.62
2018-08-18T21:00:53.254Z,101241.39
2018-08-18T21:03:21.280Z,101243.95
2018-08-18T21:05:49.283Z,101240.22
2018-08-18T21:08:18.214Z,101238.87
2018-08-18T21:10:46.320Z,101246.23
2018-08-18T21:13:14.353Z,101244.35
2018-08-18T21:15:42.489Z,101240.77
2018-08-18T21:18:18.124Z,101238.12
2018-08-18T21:20:46.203Z,101245.23
2018-08-18T21:23:14.177Z,101248.70
2018-08-18T21:25:44.869Z,101253.09
2018-08-18T21:28:13.454Z,101255.38
2018-08-18T21:30:41.508Z,101264.78
2018-08-18T21:33:09.521Z,101259.91
2018-08-18T21:35:38.105Z,101262.43
2018-08-18T21:38:06.697Z,101258.70
2018-08-18T21:40:34.785Z,101261.89
2018-08-18T21:43:02.800Z,101248.89
2018-08-18T21:45:36.234Z,101252.72
2018-08-18T21:48:04.422Z,101249.47
2018-08-18T21:50:32.473Z,101250.77
2018-08-18T21:53:00.474Z,101253.09
2018-08-18T21:55:29.180Z,101251.67
2018-08-18T21:57:58.285Z,101259.31
2018-08-18T22:00:31.588Z,101260.45
2018-08-18T22:02:59.593Z,101267.30
2018-08-18T22:05:30.979Z,101265.34
2018-08-18T22:07:59.452Z,101270.38
2018-08-18T22:10:27.606Z,101273.48
2018-08-18T22:12:55.697Z,101274.83
2018-08-18T22:15:23.864Z,101273.27
2018-08-18T22:17:52.695Z,101271.86
2018-08-18T22:20:21.856Z,101271.39
2018-08-18T22:22:49.877Z,101270.75
2018-08-18T22:25:17.849Z,101277.45
2018-08-18T22:27:45.861Z,101273.34
2018-08-18T22:30:15.264Z,101279.28
2018-08-18T22:32:44.342Z,101277.86
2018-08-18T22:35:12.961Z,101274.21
2018-08-18T22:37:41.234Z,101276.23
2018-08-18T22:40:10.320Z,101274.27
2018-08-18T22:42:38.541Z,101272.16
2018-08-18T22:45:18.741Z,101275.13
2018-08-18T22:47:46.816Z,101280.16
2018-08-18T22:50:15.511Z,101279.72
2018-08-18T22:52:46.409Z,101276.89
2018-08-18T22:55:14.428Z,101279.61
2018-08-18T22:57:42.808Z,101281.16
2018-08-18T23:00:10.806Z,101277.73
2018-08-18T23:02:38.805Z,101275.77
2018-08-18T23:05:06.848Z,101273.43
2018-08-18T23:07:34.824Z,101266.52
2018-08-18T23:10:02.811Z,101267.35
2018-08-18T23:12:30.820Z,101267.07
2018-08-18T23:14:58.824Z,101265.30
2018-08-18T23:17:26.818Z,101265.23
2018-08-18T23:19:54.815Z,101269.88
2018-08-18T23:22:37.341Z,101269.76
2018-08-18T23:25:05.337Z,101267.83
2018-08-18T23:27:33.352Z,101266.14
2018-08-18T23:30:01.357Z,101267.20
2018-08-18T23:32:29.364Z,101268.07
2018-08-18T23:34:58.112Z,101269.69
2018-08-18T23:37:26.108Z,101266.63
2018-08-18T23:39:55.577Z,101267.45
2018-08-18T23:42:24.772Z,101269.11
2018-08-18T23:44:52.829Z,101272.41
2018-08-18T23:47:20.917Z,101275.09
2018-08-18T23:49:48.929Z,101274.25
2018-08-18T23:52:16.932Z,101271.75
2018-08-18T23:54:44.941Z,101276.27
2018-08-18T23:57:15.234Z,101273.70
2018-08-18T23:59:43.336Z,101276.28
